sensor_id;sensor_type;location;lat;lon;timestamp;pressure;altitude;pressure_sealevel;temperature;humidity
29549;BME280;16487;53.094;8.800;2023-03-20T00:01:17;100999.25;;;10.51;100.00
29549;BME280;16487;53.094;8.800;2023-03-20T00:03:44;100992.84;;;10.54;100.00
29549;BME280;16487;53.094;8.800;2023-03-20T00:06:14;100995.75;;;10.63;100.00
29549;BME280;16487;53.094;8.800;2023-03-20T00:08:42;100991.59;;;10.55;100.00
29549;BME280;16487;53.094;8.800;2023-03-20T00:11:24;100984.81;;;10.56;100.00
29549;BME280;16487;53.094;8.800;2023-03-20T00:13:53;100983.34;;;10.52;100.00
29549;BME280;16487;53.094;8.800;2023-03-20T00:16:26;100990.06;;;10.54;100.00
29549;BME280;16487;53.094;8.800;2023-03-20T00:18:55;100986.38;;;10.57;100.00
29549;BME280;16487;53.094;8.800;2023-03-20T00:21:23;100991.59;;;10.55;100.00
29549;BME280;16487;53.094;8.800;2023-03-20T00:23:50;100991.88;;;10.45;100.00
29549;BME280;16487;53.094;8.800;2023-03-20T00:26:18;100990.66;;;10.46;100.00
29549;BME280;16487;53.094;8.800;2023-03-20T00:28:46;100991.44;;;10.46;100.00
29549;BME280;16487;53.094;8.800;2023-03-20T00:31:21;100983.06;;;10.46;100.00
29549;BME280;16487;53.094;8.800;2023-03-20T00:33:54;100982.75;;;10.44;100.00
29549;BME280;16487;53.094;8.800;2023-03-20T00:36:21;100980.09;;;10.53;100.00
29549;BME280;16487;53.094;8.800;2023-03-20T00:38:49;100977.84;;;10.48;100.00
29549;BME280;16487;53.094;8.800;2023-03-20T00:41:21;100969.31;;;10.39;100.00
29549;BME280;16487;53.094;8.800;2023-03-20T00:43:51;100970.72;;;10.31;100.00
29549;BME280;16487;53.094;8.800;2023-03-20T00:46:19;100978.19;;;10.34;100.00
29549;BME280;16487;53.094;8.800;2023-03-20T00:48:47;100974.56;;;10.37;100.00
29549;BME280;16487;53.094;8.800;2023-03-20T00:51:17;100984.66;;;10.31;100.00
29549;BME280;16487;53.094;8.800;2023-03-20T00:53:45;100981.50;;;10.29;100.00
29549;BME280;16487;53.094;8.800;2023-03-20T00:56:29;100980.63;;;10.32;100.00
29549;BME280;16487;53.094;8.800;2023-03-20T00:58:59;100991.78;;;10.32;100.00
29549;BME280;16487;53.094;8.800;2023-03-20T01:01:27;100993.53;;;10.26;100.00
29549;BME280;16487;53.094;8.800;2023-03-20T01:03:55;100998.03;;;10.20;100.00
29549;BME280;16487;53.094;8.800;2023-03-20T01:06:23;101004.31;;;10.24;100.00
29549;BME280;16487;53.094;8.800;2023-03-20T01:08:51;101002.41;;;10.21;100.00
29549;BME280;16487;53.094;8.800;2023-03-20T01:11:22;101014.50;;;10.14;100.00
29549;BME280;16487;53.094;8.800;2023-03-20T01:13:50;101027.13;;;10.19;100.00
29549;BME280;16487;53.094;8.800;2023-03-20T01:16:20;101028.69;;;10.20;100.00
29549;BME280;16487;53.094;8.800;2023-03-20T01:18:48;101034.41;;;10.13;100.00
29549;BME280;16487;53.094;8.800;2023-03-20T01:21:15;101045.56;;;10.13;100.00
29549;BME280;16487;53.094;8.800;2023-03-20T01:23:44;101054.97;;;10.19;100.00
29549;BME280;16487;53.094;8.800;2023-03-20T01:26:20;101063.19;;;10.06;100.00
29549;BME280;16487;53.094;8.800;2023-03-20T01:28:48;101077.97;;;10.03;100.00
29549;BME280;16487;53.094;8.800;2023-03-20T01:31:17;101097.53;;;10.00;100.00
29549;BME280;16487;53.094;8.800;2023-03-20T01:33:44;101110.41;;;9.94;100.00
29549;BME280;16487;53.094;8.800;2023-03-20T01:36:14;101129.63;;;9.88;100.00
29549;BME280;16487;53.094;8.800;2023-03-20T01:38:42;101151.25;;;9.81;100.00
29549;BME280;16487;53.094;8.800;2023-03-20T01:41:13;101166.38;;;9.80;100.00
29549;BME280;16487;53.094;8.800;2023-03-20T01:43:44;101175.44;;;9.64;100.00
29549;BME280;16487;53.094;8.800;2023-03-20T01:46:16;101170.75;;;9.58;100.00
29549;BME280;16487;53.094;8.800;2023-03-20T01:52:09;101168.56;;;9.69;100.00
29549;BME280;16487;53.094;8.800;2023-03-20T01:54:37;101159.56;;;9.61;100.00
29549;BME280;16487;53.094;8.800;2023-03-20T01:57:13;101151.66;;;9.60;100.00
29549;BME280;16487;53.094;8.800;2023-03-20T01:59:46;101147.81;;;9.54;100.00
29549;BME280;16487;53.094;8.800;2023-03-20T02:02:18;101135.03;;;9.56;100.00
29549;BME280;16487;53.094;8.800;2023-03-20T02:04:52;101138.22;;;9.55;100.00
29549;BME280;16487;53.094;8.800;2023-03-20T02:07:22;101130.38;;;9.50;100.00
29549;BME280;16487;53.094;8.800;2023-03-20T02:09:57;101131.88;;;9.54;100.00
29549;BME280;16487;53.094;8.800;2023-03-20T02:12:38;101126.38;;;9.51;100.00
29549;BME280;16487;53.094;8.800;2023-03-20T02:15:08;101132.81;;;9.48;100.00
29549;BME280;16487;53.094;8.800;2023-03-20T02:18:00;101122.16;;;9.43;100.00
29549;BME280;16487;53.094;8.800;2023-03-20T02:20:35;101131.38;;;9.40;100.00
29549;BME280;16487;53.094;8.800;2023-03-20T02:23:35;101134.59;;;9.38;100.00
29549;BME280;16487;53.094;8.800;2023-03-20T02:26:20;101154.50;;;9.37;100.00
29549;BME280;16487;53.094;8.800;2023-03-20T02:29:29;101144.25;;;9.30;100.00
29549;BME280;16487;53.094;8.800;2023-03-20T02:35:45;101149.66;;;9.17;100.00
29549;BME280;16487;53.094;8.800;2023-03-20T02:38:42;101151.59;;;9.20;100.00
29549;BME280;16487;53.094;8.800;2023-03-20T02:41:22;101169.19;;;9.14;100.00
29549;BME280;16487;53.094;8.800;2023-03-20T02:44:01;101164.38;;;9.14;100.00
29549;BME280;16487;53.094;8.800;2023-03-20T02:46:37;101167.16;;;9.14;100.00
29549;BME280;16487;53.094;8.800;2023-03-20T02:49:22;101155.88;;;9.25;100.00
29549;BME280;16487;53.094;8.800;2023-03-20T02:51:57;101142.25;;;9.31;100.00
29549;BME280;16487;53.094;8.800;2023-03-20T02:54:32;101138.53;;;9.17;100.00
29549;BME280;16487;53.094;8.800;2023-03-20T02:57:08;101124.78;;;9.30;100.00
29549;BME280;16487;53.094;8.800;2023-03-20T02:59:42;101109.75;;;9.27;100.00
29549;BME280;16487;53.094;8.800;2023-03-20T03:02:11;101095.97;;;9.20;100.00
29549;BME280;16487;53.094;8.800;2023-03-20T03:04:46;101080.72;;;9.28;100.00
29549;BME280;16487;53.094;8.800;2023-03-20T03:07:19;101057.75;;;9.24;100.00
29549;BME280;16487;53.094;8.800;2023-03-20T03:09:54;101031.50;;;9.25;100.00
29549;BME280;16487;53.094;8.800;2023-03-20T03:12:26;101029.38;;;9.33;100.00
29549;BME280;16487;53.094;8.800;2023-03-20T03:15:00;101006.41;;;9.29;100.00
29549;BME280;16487;53.094;8.800;2023-03-20T03:17:31;101001.97;;;9.32;100.00
29549;BME280;16487;53.094;8.800;2023-03-20T03:20:04;101001.22;;;9.31;100.00
29549;BME280;16487;53.094;8.800;2023-03-20T03:22:36;100981.88;;;9.24;100.00
29549;BME280;16487;53.094;8.800;2023-03-20T03:25:09;100980.50;;;9.32;100.00
29549;BME280;16487;53.094;8.800;2023-03-20T03:27:41;100972.25;;;9.28;100.00
29549;BME280;16487;53.094;8.800;2023-03-20T03:30:12;100958.25;;;9.32;100.00
29549;BME280;16487;53.094;8.800;2023-03-20T03:32:46;100969.91;;;9.27;100.00
29549;BME280;16487;53.094;8.800;2023-03-20T03:35:18;100965.56;;;9.26;100.00
29549;BME280;16487;53.094;8.800;2023-03-20T03:37:49;100973.31;;;9.35;100.00
29549;BME280;16487;53.094;8.800;2023-03-20T03:40:29;100971.13;;;9.26;100.00
29549;BME280;16487;53.094;8.800;2023-03-20T03:43:02;100970.84;;;9.20;100.00
29549;BME280;16487;53.094;8.800;2023-03-20T03:45:35;100966.97;;;9.14;100.00
29549;BME280;16487;53.094;8.800;2023-03-20T03:48:07;100973.63;;;9.20;100.00
29549;BME280;16487;53.094;8.800;2023-03-20T03:50:40;100976.47;;;9.17;100.00
29549;BME280;16487;53.094;8.800;2023-03-20T03:53:09;100981.59;;;9.18;100.00
29549;BME280;16487;53.094;8.800;2023-03-20T03:55:42;100984.31;;;9.22;100.00
29549;BME280;16487;53.094;8.800;2023-03-20T03:58:15;100987.16;;;9.18;100.00
29549;BME280;16487;53.094;8.800;2023-03-20T04:00:46;100994.78;;;9.14;100.00
29549;BME280;16487;53.094;8.800;2023-03-20T04:03:15;101001.56;;;9.13;100.00
29549;BME280;16487;53.094;8.800;2023-03-20T04:05:43;101008.47;;;9.05;100.00
29549;BME280;16487;53.094;8.800;2023-03-20T04:08:13;101014.59;;;9.16;100.00
29549;BME280;16487;53.094;8.800;2023-03-20T04:10:42;101029.50;;;9.06;100.00
29549;BME280;16487;53.094;8.800;2023-03-20T04:13:09;101039.75;;;9.09;100.00
29549;BME280;16487;53.094;8.800;2023-03-20T04:15:37;101041.47;;;9.03;100.00
29549;BME280;16487;53.094;8.800;2023-03-20T04:18:06;101053.72;;;9.06;100.00
29549;BME280;16487;53.094;8.800;2023-03-20T04:20:34;101062.00;;;9.09;100.00
29549;BME280;16487;53.094;8.800;2023-03-20T04:23:04;101078.63;;;9.13;100.00
29549;BME280;16487;53.094;8.800;2023-03-20T04:25:31;101073.13;;;9.09;100.00
29549;BME280;16487;53.094;8.800;2023-03-20T04:28:00;101070.78;;;9.08;100.00
29549;BME280;16487;53.094;8.800;2023-03-20T04:30:51;101081.94;;;9.04;100.00
29549;BME280;16487;53.094;8.800;2023-03-20T04:33:50;101081.47;;;9.09;100.00
29549;BME280;16487;53.094;8.800;2023-03-20T04:36:25;101085.47;;;9.08;100.00
29549;BME280;16487;53.094;8.800;2023-03-20T04:38:53;101090.66;;;9.06;100.00
29549;BME280;16487;53.094;8.800;2023-03-20T04:41:24;101093.06;;;9.04;100.00
29549;BME280;16487;53.094;8.800;2023-03-20T04:43:55;101095.53;;;8.99;100.00
29549;BME280;16487;53.094;8.800;2023-03-20T04:46:23;101103.34;;;9.07;100.00
29549;BME280;16487;53.094;8.800;2023-03-20T04:48:51;101101.09;;;8.99;100.00
29549;BME280;16487;53.094;8.800;2023-03-20T04:51:19;101105.47;;;9.00;100.00
29549;BME280;16487;53.094;8.800;2023-03-20T04:53:51;101109.50;;;8.95;100.00
29549;BME280;16487;53.094;8.800;2023-03-20T04:56:19;101128.97;;;8.95;100.00
29549;BME280;16487;53.094;8.800;2023-03-20T04:58:48;101137.78;;;8.90;100.00
29549;BME280;16487;53.094;8.800;2023-03-20T05:01:19;101142.38;;;9.00;100.00
29549;BME280;16487;53.094;8.800;2023-03-20T05:03:47;101147.59;;;8.98;100.00
29549;BME280;16487;53.094;8.800;2023-03-20T05:06:14;101157.88;;;9.01;100.00
29549;BME280;16487;53.094;8.800;2023-03-20T05:08:43;101160.66;;;9.01;100.00
29549;BME280;16487;53.094;8.800;2023-03-20T05:11:10;101150.25;;;9.05;100.00
29549;BME280;16487;53.094;8.800;2023-03-20T05:13:56;101154.34;;;8.97;100.00
29549;BME280;16487;53.094;8.800;2023-03-20T05:16:45;101162.22;;;9.02;100.00
29549;BME280;16487;53.094;8.800;2023-03-20T05:19:38;101159.84;;;9.01;100.00
29549;BME280;16487;53.094;8.800;2023-03-20T05:22:12;101162.22;;;9.02;100.00
29549;BME280;16487;53.094;8.800;2023-03-20T05:24:45;101166.94;;;9.05;100.00
29549;BME280;16487;53.094;8.800;2023-03-20T05:27:48;101157.38;;;9.06;100.00
29549;BME280;16487;53.094;8.800;2023-03-20T05:30:48;101154.13;;;9.11;100.00
29549;BME280;16487;53.094;8.800;2023-03-20T05:33:35;101152.69;;;9.03;100.00
29549;BME280;16487;53.094;8.800;2023-03-20T05:36:22;101159.31;;;9.09;100.00
29549;BME280;16487;53.094;8.800;2023-03-20T05:38:55;101159.31;;;9.09;100.00
29549;BME280;16487;53.094;8.800;2023-03-20T05:41:45;101164.38;;;9.14;100.00
29549;BME280;16487;53.094;8.800;2023-03-20T05:44:31;101162.81;;;9.13;100.00
29549;BME280;16487;53.094;8.800;2023-03-20T05:47:14;101167.59;;;9.13;100.00
29549;BME280;16487;53.094;8.800;2023-03-20T05:50:06;101162.09;;;9.09;100.00
29549;BME280;16487;53.094;8.800;2023-03-20T05:52:48;101178.13;;;9.02;100.00
29549;BME280;16487;53.094;8.800;2023-03-20T05:55:21;101186.75;;;9.07;100.00
29549;BME280;16487;53.094;8.800;2023-03-20T05:58:07;101198.19;;;9.13;100.00
29549;BME280;16487;53.094;8.800;2023-03-20T06:00:56;101202.59;;;9.10;100.00
29549;BME280;16487;53.094;8.800;2023-03-20T06:03:41;101208.06;;;9.17;100.00
29549;BME280;16487;53.094;8.800;2023-03-20T06:06:16;101205.66;;;9.16;100.00
29549;BME280;16487;53.094;8.800;2023-03-20T06:08:48;101216.16;;;9.08;100.00
29549;BME280;16487;53.094;8.800;2023-03-20T06:11:15;101204.53;;;9.13;100.00
29549;BME280;16487;53.094;8.800;2023-03-20T06:13:43;101194.69;;;9.09;100.00
29549;BME280;16487;53.094;8.800;2023-03-20T06:16:11;101207.22;;;9.20;100.00
29549;BME280;16487;53.094;8.800;2023-03-20T06:18:38;101198.50;;;9.18;100.00
29549;BME280;16487;53.094;8.800;2023-03-20T06:21:07;101203.50;;;9.27;100.00
29549;BME280;16487;53.094;8.800;2023-03-20T06:23:36;101199.09;;;9.30;100.00
29549;BME280;16487;53.094;8.800;2023-03-20T06:26:04;101175.28;;;9.28;100.00
29549;BME280;16487;53.094;8.800;2023-03-20T06:28:43;101152.78;;;9.19;100.00
29549;BME280;16487;53.094;8.800;2023-03-20T06:31:11;101145.03;;;9.31;100.00
29549;BME280;16487;53.094;8.800;2023-03-20T06:33:38;101122.00;;;9.30;100.00
29549;BME280;16487;53.094;8.800;2023-03-20T06:36:08;101105.31;;;9.30;100.00
29549;BME280;16487;53.094;8.800;2023-03-20T06:38:36;101101.28;;;9.35;100.00
29549;BME280;16487;53.094;8.800;2023-03-20T06:41:09;101083.84;;;9.31;100.00
29549;BME280;16487;53.094;8.800;2023-03-20T06:43:41;101074.00;;;9.46;100.00
29549;BME280;16487;53.094;8.800;2023-03-20T06:46:09;101064.97;;;9.42;100.00
29549;BME280;16487;53.094;8.800;2023-03-20T06:48:37;101037.72;;;9.33;100.00
29549;BME280;16487;53.094;8.800;2023-03-20T06:51:06;101025.75;;;9.36;100.00
29549;BME280;16487;53.094;8.800;2023-03-20T06:53:39;100992.56;;;9.25;100.00
29549;BME280;16487;53.094;8.800;2023-03-20T06:56:13;100978.03;;;9.38;100.00
29549;BME280;16487;53.094;8.800;2023-03-20T06:58:41;100967.25;;;9.40;100.00
29549;BME280;16487;53.094;8.800;2023-03-20T07:01:09;100947.72;;;9.43;100.00
29549;BME280;16487;53.094;8.800;2023-03-20T07:03:37;100921.38;;;9.48;100.00
29549;BME280;16487;53.094;8.800;2023-03-20T07:06:04;100911.25;;;9.38;100.00
29549;BME280;16487;53.094;8.800;2023-03-20T07:08:32;100905.19;;;9.43;100.00
29549;BME280;16487;53.094;8.800;2023-03-20T07:11:03;100888.78;;;9.48;100.00
29549;BME280;16487;53.094;8.800;2023-03-20T07:13:31;100874.25;;;9.57;100.00
29549;BME280;16487;53.094;8.800;2023-03-20T07:16:05;100860.31;;;9.41;100.00
29549;BME280;16487;53.094;8.800;2023-03-20T07:18:37;100856.25;;;9.45;100.00
29549;BME280;16487;53.094;8.800;2023-03-20T07:21:05;100835.47;;;9.50;100.00
29549;BME280;16487;53.094;8.800;2023-03-20T07:23:34;100835.13;;;9.48;100.00
29549;BME280;16487;53.094;8.800;2023-03-20T07:26:03;100830.53;;;9.57;100.00
29549;BME280;16487;53.094;8.800;2023-03-20T07:28:31;100820.69;;;9.53;100.00
29549;BME280;16487;53.094;8.800;2023-03-20T07:31:22;100809.22;;;9.51;100.00
29549;BME280;16487;53.094;8.800;2023-03-20T07:33:58;100814.78;;;9.51;100.00
29549;BME280;16487;53.094;8.800;2023-03-20T07:36:25;100813.56;;;9.52;100.00
29549;BME280;16487;53.094;8.800;2023-03-20T07:38:53;100811.41;;;9.59;100.00
29549;BME280;16487;53.094;8.800;2023-03-20T07:41:22;100805.94;;;9.56;100.00
29549;BME280;16487;53.094;8.800;2023-03-20T07:43:59;100797.16;;;9.57;100.00
29549;BME280;16487;53.094;8.800;2023-03-20T07:46:32;100794.00;;;9.55;100.00
29549;BME280;16487;53.094;8.800;2023-03-20T07:49:00;100786.69;;;9.61;100.00
29549;BME280;16487;53.094;8.800;2023-03-20T07:51:28;100770.63;;;9.53;100.00
29549;BME280;16487;53.094;8.800;2023-03-20T07:53:56;100770.09;;;9.58;100.00
29549;BME280;16487;53.094;8.800;2023-03-20T07:56:24;100772.72;;;9.49;100.00
29549;BME280;16487;53.094;8.800;2023-03-20T07:58:52;100776.53;;;9.55;100.00
29549;BME280;16487;53.094;8.800;2023-03-20T08:01:19;100770.53;;;9.56;100.00
29549;BME280;16487;53.094;8.800;2023-03-20T08:03:46;100778.97;;;9.53;100.00
29549;BME280;16487;53.094;8.800;2023-03-20T08:06:14;100749.06;;;9.57;100.00
29549;BME280;16487;53.094;8.800;2023-03-20T08:08:41;100752.38;;;9.68;100.00
29549;BME280;16487;53.094;8.800;2023-03-20T08:11:09;100746.81;;;9.68;100.00
29549;BME280;16487;53.094;8.800;2023-03-20T08:13:37;100748.00;;;9.83;100.00
29549;BME280;16487;53.094;8.800;2023-03-20T08:16:05;100739.00;;;9.91;100.00
29549;BME280;16487;53.094;8.800;2023-03-20T08:18:32;100727.78;;;9.95;100.00
29549;BME280;16487;53.094;8.800;2023-03-20T08:21:00;100720.06;;;10.15;100.00
29549;BME280;16487;53.094;8.800;2023-03-20T08:23:28;100710.38;;;9.91;100.00
29549;BME280;16487;53.094;8.800;2023-03-20T08:25:55;100728.69;;;10.04;100.00
29549;BME280;16487;53.094;8.800;2023-03-20T08:28:22;100736.28;;;10.04;100.00
29549;BME280;16487;53.094;8.800;2023-03-20T08:31:11;100734.69;;;10.03;100.00
29549;BME280;16487;53.094;8.800;2023-03-20T08:33:39;100736.28;;;10.04;100.00
29549;BME280;16487;53.094;8.800;2023-03-20T08:36:07;100738.38;;;10.00;100.00
29549;BME280;16487;53.094;8.800;2023-03-20T08:38:35;100736.63;;;10.06;100.00
29549;BME280;16487;53.094;8.800;2023-03-20T08:41:03;100733.34;;;9.95;100.00
29549;BME280;16487;53.094;8.800;2023-03-20T08:43:32;100733.34;;;10.11;100.00
29549;BME280;16487;53.094;8.800;2023-03-20T08:45:59;100729.66;;;10.14;100.00
29549;BME280;16487;53.094;8.800;2023-03-20T08:48:28;100724.19;;;10.10;100.00
29549;BME280;16487;53.094;8.800;2023-03-20T08:50:55;100716.94;;;10.13;100.00
29549;BME280;16487;53.094;8.800;2023-03-20T08:53:22;100735.72;;;10.25;100.00
29549;BME280;16487;53.094;8.800;2023-03-20T08:55:51;100716.31;;;10.21;100.00
29549;BME280;16487;53.094;8.800;2023-03-20T08:58:19;100719.03;;;10.37;100.00
29549;BME280;16487;53.094;8.800;2023-03-20T09:00:46;100718.91;;;10.28;100.00
29549;BME280;16487;53.094;8.800;2023-03-20T09:03:15;100707.44;;;10.39;100.00
29549;BME280;16487;53.094;8.800;2023-03-20T09:05:44;100723.50;;;10.35;100.00
29549;BME280;16487;53.094;8.800;2023-03-20T09:08:12;100709.56;;;10.35;100.00
29549;BME280;16487;53.094;8.800;2023-03-20T09:10:40;100712.34;;;10.35;100.00
29549;BME280;16487;53.094;8.800;2023-03-20T09:13:07;100712.03;;;10.46;100.00
29549;BME280;16487;53.094;8.800;2023-03-20T09:15:53;100709.03;;;10.65;100.00
29549;BME280;16487;53.094;8.800;2023-03-20T09:18:21;100714.63;;;10.78;100.00
29549;BME280;16487;53.094;8.800;2023-03-20T09:20:51;100715.72;;;10.55;100.00
29549;BME280;16487;53.094;8.800;2023-03-20T09:23:18;100725.75;;;10.65;100.00
29549;BME280;16487;53.094;8.800;2023-03-20T09:25:46;100718.63;;;10.89;100.00
29549;BME280;16487;53.094;8.800;2023-03-20T09:28:13;100731.38;;;10.90;100.00
29549;BME280;16487;53.094;8.800;2023-03-20T09:30:41;100731.91;;;10.73;100.00
29549;BME280;16487;53.094;8.800;2023-03-20T09:33:08;100734.94;;;11.03;100.00
29549;BME280;16487;53.094;8.800;2023-03-20T09:35:39;100745.84;;;11.10;100.00
29549;BME280;16487;53.094;8.800;2023-03-20T09:38:10;100746.84;;;11.29;100.00
29549;BME280;16487;53.094;8.800;2023-03-20T09:40:48;100757.47;;;10.84;100.00
29549;BME280;16487;53.094;8.800;2023-03-20T09:43:24;100755.88;;;10.83;100.00
29549;BME280;16487;53.094;8.800;2023-03-20T09:45:59;100757.09;;;10.69;100.00
29549;BME280;16487;53.094;8.800;2023-03-20T09:48:34;100747.41;;;10.74;100.00
29549;BME280;16487;53.094;8.800;2023-03-20T09:51:06;100761.22;;;10.77;100.00
29549;BME280;16487;53.094;8.800;2023-03-20T09:53:41;100763.16;;;10.80;100.00
29549;BME280;16487;53.094;8.800;2023-03-20T09:56:13;100760.16;;;11.12;100.00
29549;BME280;16487;53.094;8.800;2023-03-20T09:58:48;100773.53;;;11.30;100.00
29549;BME280;16487;53.094;8.800;2023-03-20T10:01:24;100774.88;;;11.13;100.00
29549;BME280;16487;53.094;8.800;2023-03-20T10:03:55;100782.34;;;11.03;100.00
29549;BME280;16487;53.094;8.800;2023-03-20T10:06:23;100780.56;;;11.09;100.00
29549;BME280;16487;53.094;8.800;2023-03-20T10:08:52;100788.91;;;11.34;100.00
29549;BME280;16487;53.094;8.800;2023-03-20T10:11:42;100794.94;;;11.20;100.00
29549;BME280;16487;53.094;8.800;2023-03-20T10:14:20;100798.50;;;11.08;100.00
29549;BME280;16487;53.094;8.800;2023-03-20T10:17:01;100785.91;;;11.04;100.00
29549;BME280;16487;53.094;8.800;2023-03-20T10:19:32;100790.81;;;11.00;100.00
29549;BME280;16487;53.094;8.800;2023-03-20T10:22:10;100786.25;;;10.93;100.00
29549;BME280;16487;53.094;8.800;2023-03-20T10:24:48;100802.03;;;10.71;100.00
29549;BME280;16487;53.094;8.800;2023-03-20T10:27:31;100779.59;;;10.62;100.00
29549;BME280;16487;53.094;8.800;2023-03-20T10:30:15;100792.91;;;10.83;100.00
29549;BME280;16487;53.094;8.800;2023-03-20T10:32:51;100800.25;;;10.77;100.00
29549;BME280;16487;53.094;8.800;2023-03-20T10:35:25;100799.84;;;10.91;100.00
29549;BME280;16487;53.094;8.800;2023-03-20T10:38:04;100793.16;;;11.01;100.00
29549;BME280;16487;53.094;8.800;2023-03-20T10:40:36;100810.25;;;11.16;100.00
29549;BME280;16487;53.094;8.800;2023-03-20T10:43:12;100818.16;;;11.17;100.00
29549;BME280;16487;53.094;8.800;2023-03-20T10:45:43;100816.94;;;11.18;100.00
29549;BME280;16487;53.094;8.800;2023-03-20T10:48:17;100827.19;;;11.09;100.00
29549;BME280;16487;53.094;8.800;2023-03-20T10:50:50;100842.91;;;10.90;100.00
29549;BME280;16487;53.094;8.800;2023-03-20T10:53:24;100835.44;;;11.12;100.00
29549;BME280;16487;53.094;8.800;2023-03-20T10:55:57;100858.59;;;11.25;100.00
29549;BME280;16487;53.094;8.800;2023-03-20T10:58:27;100852.00;;;11.32;100.00
29549;BME280;16487;53.094;8.800;2023-03-20T11:00:57;100857.38;;;11.77;100.00
29549;BME280;16487;53.094;8.800;2023-03-20T11:03:26;100904.78;;;11.51;100.00
29549;BME280;16487;53.094;8.800;2023-03-20T11:05:58;100912.94;;;11.58;100.00
29549;BME280;16487;53.094;8.800;2023-03-20T11:08:38;100916.00;;;11.77;100.00
29549;BME280;16487;53.094;8.800;2023-03-20T11:11:08;100930.84;;;12.11;100.00
29549;BME280;16487;53.094;8.800;2023-03-20T11:13:38;100928.47;;;12.22;100.00
29549;BME280;16487;53.094;8.800;2023-03-20T11:16:16;100958.22;;;12.16;100.00
29549;BME280;16487;53.094;8.800;2023-03-20T11:18:44;100974.34;;;12.59;100.00
29549;BME280;16487;53.094;8.800;2023-03-20T11:21:17;101047.72;;;12.50;100.00
29549;BME280;16487;53.094;8.800;2023-03-20T11:23:45;101048.72;;;12.44;100.00
29549;BME280;16487;53.094;8.800;2023-03-20T11:26:16;101058.56;;;12.61;100.00
29549;BME280;16487;53.094;8.800;2023-03-20T11:28:50;101065.94;;;12.05;100.00
29549;BME280;16487;53.094;8.800;2023-03-20T11:31:20;101051.44;;;12.22;100.00
29549;BME280;16487;53.094;8.800;2023-03-20T11:33:52;101046.06;;;12.03;100.00
29549;BME280;16487;53.094;8.800;2023-03-20T11:36:28;101049.50;;;11.94;100.00
29549;BME280;16487;53.094;8.800;2023-03-20T11:39:00;101037.22;;;12.42;100.00
29549;BME280;16487;53.094;8.800;2023-03-20T11:41:32;101046.19;;;12.12;100.00
29549;BME280;16487;53.094;8.800;2023-03-20T11:43:59;101043.38;;;11.99;100.00
29549;BME280;16487;53.094;8.800;2023-03-20T11:46:27;101039.00;;;12.11;100.00
29549;BME280;16487;53.094;8.800;2023-03-20T11:49:06;101063.72;;;12.12;100.00
29549;BME280;16487;53.094;8.800;2023-03-20T11:51:34;101078.13;;;12.11;100.00
29549;BME280;16487;53.094;8.800;2023-03-20T11:54:04;101090.97;;;12.21;100.00
29549;BME280;16487;53.094;8.800;2023-03-20T11:56:35;101108.34;;;12.41;100.00
29549;BME280;16487;53.094;8.800;2023-03-20T11:59:13;101117.47;;;12.16;100.00
29549;BME280;16487;53.094;8.800;2023-03-20T12:01:43;101106.66;;;12.31;100.00
29549;BME280;16487;53.094;8.800;2023-03-20T12:04:12;101156.75;;;12.63;100.00
29549;BME280;16487;53.094;8.800;2023-03-20T12:06:45;101161.38;;;12.57;100.00
29549;BME280;16487;53.094;8.800;2023-03-20T12:09:29;101142.19;;;12.18;100.00
29549;BME280;16487;53.094;8.800;2023-03-20T12:12:02;101125.22;;;12.50;100.00
29549;BME280;16487;53.094;8.800;2023-03-20T12:14:39;101147.47;;;12.66;100.00
29549;BME280;16487;53.094;8.800;2023-03-20T12:17:29;101154.63;;;12.42;100.00
29549;BME280;16487;53.094;8.800;2023-03-20T12:20:03;101162.88;;;12.33;100.00
29549;BME280;16487;53.094;8.800;2023-03-20T12:22:35;101183.44;;;12.26;100.00
29549;BME280;16487;53.094;8.800;2023-03-20T12:25:15;101191.03;;;12.13;100.00
29549;BME280;16487;53.094;8.800;2023-03-20T12:27:51;101185.88;;;12.12;100.00
29549;BME280;16487;53.094;8.800;2023-03-20T12:30:27;101190.91;;;12.17;100.00
29549;BME280;16487;53.094;8.800;2023-03-20T12:33:01;101202.25;;;12.38;100.00
29549;BME280;16487;53.094;8.800;2023-03-20T12:35:32;101233.19;;;12.19;100.00
29549;BME280;16487;53.094;8.800;2023-03-20T12:38:01;101204.66;;;12.11;100.00
29549;BME280;16487;53.094;8.800;2023-03-20T12:40:38;101195.22;;;12.05;100.00
29549;BME280;16487;53.094;8.800;2023-03-20T12:43:14;101180.25;;;11.99;100.00
29549;BME280;16487;53.094;8.800;2023-03-20T12:45:45;101181.91;;;11.97;100.00
29549;BME280;16487;53.094;8.800;2023-03-20T12:48:34;101220.19;;;11.84;100.00
29549;BME280;16487;53.094;8.800;2023-03-20T12:51:11;101228.19;;;11.98;100.00
29549;BME280;16487;53.094;8.800;2023-03-20T12:53:50;101220.97;;;11.84;100.00
29549;BME280;16487;53.094;8.800;2023-03-20T12:56:26;101194.34;;;11.80;100.00
29549;BME280;16487;53.094;8.800;2023-03-20T12:59:00;101188.78;;;11.80;100.00
29549;BME280;16487;53.094;8.800;2023-03-20T13:01:35;101176.91;;;12.04;100.00
29549;BME280;16487;53.094;8.800;2023-03-20T13:04:19;101183.97;;;11.80;100.00
29549;BME280;16487;53.094;8.800;2023-03-20T13:06:54;101179.56;;;11.95;100.00
29549;BME280;16487;53.094;8.800;2023-03-20T13:12:32;101172.81;;;11.80;100.00
29549;BME280;16487;53.094;8.800;2023-03-20T13:15:13;101177.06;;;11.85;100.00
29549;BME280;16487;53.094;8.800;2023-03-20T13:17:48;101158.59;;;11.75;100.00
29549;BME280;16487;53.094;8.800;2023-03-20T13:20:24;101166.31;;;12.12;100.00
29549;BME280;16487;53.094;8.800;2023-03-20T13:23:14;101180.75;;;11.82;100.00
29549;BME280;16487;53.094;8.800;2023-03-20T13:26:03;101181.88;;;11.84;100.00